RYR7308 LCPH-LOWW
Flight info
| Callsign | RYR7308 |
|---|---|
| Flight time | 2h 46m |
| Altitude | 38000 |
| Route | GENOS DCT PEDER M855 TOMBI UA16 AYT UQ23 OSVEL UL619 MAKOL L602 KOMAN DCT BALUX DCT TORNO DCT NATEX NATEX2W |
| Aircraft | B738/M-SDE2E3FGHIRWXY/LB1 |
Departure
| Time | 2026-04-24 20:12 |
|---|---|
| Airport | Paphos International Airport (LCPH) |
Arrival
| Time | 2026-04-24 22:59 |
|---|---|
| Airport | Vienna International Airport (LOWW) |
| Time | Latitude | Longitude | Altitude | Speed | Heading |
|---|---|---|---|---|---|
| 2026-04-24 19:40 | 34.71272 | 32.48418 | 45 ft | 0 kts | 161° |
| 2026-04-24 20:03 | 34.71295 | 32.48407 | 41 ft | 4 kts | 158° |
| 2026-04-24 20:03 | 34.71321 | 32.48396 | 44 ft | 4 kts | 166° |
| 2026-04-24 20:03 | 34.71347 | 32.48389 | 42 ft | 4 kts | 167° |
| 2026-04-24 20:03 | 34.71370 | 32.48381 | 43 ft | 4 kts | 137° |
| 2026-04-24 20:04 | 34.71383 | 32.48354 | 43 ft | 4 kts | 110° |
| 2026-04-24 20:04 | 34.71387 | 32.48342 | 42 ft | 1 kts | 110° |
| 2026-04-24 20:04 | 34.71387 | 32.48341 | 42 ft | 0 kts | 110° |
| 2026-04-24 20:07 | 34.71372 | 32.48391 | 42 ft | 8 kts | 110° |
| 2026-04-24 20:07 | 34.71353 | 32.48453 | 43 ft | 8 kts | 114° |
| 2026-04-24 20:07 | 34.71349 | 32.48520 | 45 ft | 9 kts | 69° |
| 2026-04-24 20:08 | 34.71374 | 32.48586 | 42 ft | 9 kts | 65° |
| 2026-04-24 20:08 | 34.71404 | 32.48665 | 44 ft | 12 kts | 64° |
| 2026-04-24 20:08 | 34.71444 | 32.48770 | 45 ft | 15 kts | 65° |
| 2026-04-24 20:08 | 34.71490 | 32.48892 | 45 ft | 16 kts | 65° |
| 2026-04-24 20:09 | 34.71506 | 32.48935 | 45 ft | 1 kts | 66° |
| 2026-04-24 20:09 | 34.71530 | 32.48969 | 45 ft | 11 kts | 34° |
| 2026-04-24 20:09 | 34.71629 | 32.49018 | 47 ft | 15 kts | 39° |
| 2026-04-24 20:09 | 34.71613 | 32.49155 | 46 ft | 18 kts | 110° |
| 2026-04-24 20:10 | 34.71570 | 32.49297 | 41 ft | 18 kts | 110° |
| 2026-04-24 20:10 | 34.71529 | 32.49434 | 43 ft | 17 kts | 110° |
| 2026-04-24 20:10 | 34.71488 | 32.49565 | 43 ft | 16 kts | 110° |
| 2026-04-24 20:10 | 34.71450 | 32.49693 | 42 ft | 16 kts | 112° |
| 2026-04-24 20:11 | 34.71381 | 32.49784 | 43 ft | 15 kts | 142° |
| 2026-04-24 20:11 | 34.71412 | 32.49825 | 42 ft | 14 kts | 304° |
| 2026-04-24 20:11 | 34.71443 | 32.49711 | 42 ft | 16 kts | 289° |
| 2026-04-24 20:11 | 34.71561 | 32.49332 | 43 ft | 82 kts | 290° |
| 2026-04-24 20:12 | 34.71833 | 32.48435 | 44 ft | 142 kts | 290° |
| 2026-04-24 20:12 | 34.72220 | 32.47172 | 276 ft | 171 kts | 292° |
| 2026-04-24 20:12 | 34.72624 | 32.45782 | 930 ft | 179 kts | 282° |
| 2026-04-24 20:12 | 34.72474 | 32.44278 | 1613 ft | 186 kts | 251° |
| 2026-04-24 20:13 | 34.72005 | 32.42772 | 2216 ft | 199 kts | 252° |
| 2026-04-24 20:13 | 34.71546 | 32.41104 | 2670 ft | 214 kts | 254° |
| 2026-04-24 20:13 | 34.71078 | 32.39263 | 2845 ft | 239 kts | 255° |
| 2026-04-24 20:13 | 34.70628 | 32.37286 | 3357 ft | 252 kts | 256° |
| 2026-04-24 20:14 | 34.70160 | 32.35092 | 3515 ft | 283 kts | 256° |
| 2026-04-24 20:14 | 34.69669 | 32.32759 | 4385 ft | 281 kts | 255° |
| 2026-04-24 20:14 | 34.69158 | 32.30555 | 5748 ft | 262 kts | 254° |
| 2026-04-24 20:14 | 34.68679 | 32.28456 | 6784 ft | 259 kts | 253° |
| 2026-04-24 20:15 | 34.68174 | 32.26319 | 7452 ft | 266 kts | 253° |
| 2026-04-24 20:15 | 34.67673 | 32.24135 | 8216 ft | 269 kts | 253° |
| 2026-04-24 20:15 | 34.67175 | 32.21933 | 9053 ft | 271 kts | 253° |
| 2026-04-24 20:15 | 34.66678 | 32.19717 | 9860 ft | 273 kts | 253° |
| 2026-04-24 20:16 | 34.66180 | 32.17470 | 10435 ft | 283 kts | 255° |
| 2026-04-24 20:16 | 34.66042 | 32.15010 | 10603 ft | 309 kts | 272° |
| 2026-04-24 20:16 | 34.66255 | 32.12314 | 10799 ft | 331 kts | 274° |
| 2026-04-24 20:16 | 34.66492 | 32.09477 | 11222 ft | 343 kts | 274° |
| 2026-04-24 20:17 | 34.66725 | 32.06571 | 11908 ft | 347 kts | 273° |
| 2026-04-24 20:17 | 34.67161 | 32.00715 | 13457 ft | 349 kts | 273° |
| 2026-04-24 20:17 | 34.67369 | 31.97768 | 14105 ft | 353 kts | 272° |
| 2026-04-24 20:18 | 34.67507 | 31.95793 | 14508 ft | 355 kts | 272° |
| 2026-04-24 20:18 | 34.67793 | 31.91760 | 15322 ft | 361 kts | 275° |
| 2026-04-24 20:18 | 34.68475 | 31.88805 | 15887 ft | 370 kts | 294° |
| 2026-04-24 20:18 | 34.69748 | 31.86067 | 16489 ft | 375 kts | 298° |
| 2026-04-24 20:19 | 34.71099 | 31.83334 | 17065 ft | 379 kts | 298° |
| 2026-04-24 20:19 | 34.72476 | 31.80574 | 17631 ft | 383 kts | 298° |
| 2026-04-24 20:19 | 34.73394 | 31.78732 | 18026 ft | 386 kts | 298° |
| 2026-04-24 20:19 | 34.75258 | 31.74967 | 18727 ft | 390 kts | 298° |
| 2026-04-24 20:20 | 34.76183 | 31.73084 | 19077 ft | 392 kts | 298° |
| 2026-04-24 20:20 | 34.77582 | 31.70228 | 19607 ft | 394 kts | 297° |
| 2026-04-24 20:20 | 34.79442 | 31.66409 | 20287 ft | 398 kts | 297° |
| 2026-04-24 20:20 | 34.80855 | 31.63502 | 20784 ft | 401 kts | 297° |
| 2026-04-24 20:21 | 34.81814 | 31.61525 | 21117 ft | 403 kts | 297° |
| 2026-04-24 20:21 | 34.83241 | 31.58579 | 21602 ft | 405 kts | 297° |
| 2026-04-24 20:21 | 34.84677 | 31.55613 | 22077 ft | 408 kts | 297° |
| 2026-04-24 20:21 | 34.86122 | 31.52626 | 22552 ft | 411 kts | 297° |
| 2026-04-24 20:22 | 34.87576 | 31.49619 | 23058 ft | 413 kts | 296° |
| 2026-04-24 20:22 | 34.89033 | 31.46603 | 23523 ft | 415 kts | 296° |
| 2026-04-24 20:22 | 34.90499 | 31.43565 | 23906 ft | 417 kts | 296° |
| 2026-04-24 20:22 | 34.91954 | 31.40546 | 24297 ft | 419 kts | 296° |
| 2026-04-24 20:23 | 34.93433 | 31.37476 | 24699 ft | 421 kts | 296° |
| 2026-04-24 20:23 | 34.94916 | 31.34395 | 25081 ft | 422 kts | 295° |
| 2026-04-24 20:23 | 34.96406 | 31.31297 | 25450 ft | 424 kts | 295° |
| 2026-04-24 20:23 | 34.97901 | 31.28185 | 25813 ft | 426 kts | 295° |
| 2026-04-24 20:24 | 34.99404 | 31.25054 | 26168 ft | 428 kts | 295° |
| 2026-04-24 20:24 | 35.00911 | 31.21911 | 26535 ft | 430 kts | 295° |
| 2026-04-24 20:24 | 35.02422 | 31.18759 | 26897 ft | 432 kts | 295° |
| 2026-04-24 20:24 | 35.03941 | 31.15585 | 27232 ft | 433 kts | 294° |
| 2026-04-24 20:25 | 35.05468 | 31.12393 | 27556 ft | 436 kts | 294° |
| 2026-04-24 20:25 | 35.06995 | 31.09196 | 27865 ft | 438 kts | 294° |
| 2026-04-24 20:25 | 35.08533 | 31.05974 | 28178 ft | 439 kts | 294° |
| 2026-04-24 20:25 | 35.10074 | 31.02746 | 28581 ft | 439 kts | 294° |
| 2026-04-24 20:26 | 35.11610 | 30.99524 | 28922 ft | 440 kts | 294° |
| 2026-04-24 20:26 | 35.13154 | 30.96280 | 29185 ft | 443 kts | 294° |
| 2026-04-24 20:26 | 35.14706 | 30.93021 | 29538 ft | 444 kts | 295° |
| 2026-04-24 20:26 | 35.16621 | 30.90017 | 29963 ft | 457 kts | 311° |
| 2026-04-24 20:27 | 35.19269 | 30.87787 | 30368 ft | 470 kts | 326° |
| 2026-04-24 20:27 | 35.22363 | 30.86379 | 30687 ft | 483 kts | 342° |
| 2026-04-24 20:27 | 35.25709 | 30.85975 | 30947 ft | 493 kts | 352° |
| 2026-04-24 20:27 | 35.29143 | 30.85886 | 31235 ft | 494 kts | 354° |
| 2026-04-24 20:28 | 35.32585 | 30.85854 | 31529 ft | 494 kts | 354° |
| 2026-04-24 20:28 | 35.36019 | 30.85816 | 31850 ft | 493 kts | 354° |
| 2026-04-24 20:28 | 35.39443 | 30.85749 | 32212 ft | 491 kts | 353° |
| 2026-04-24 20:28 | 35.42851 | 30.85654 | 32547 ft | 489 kts | 353° |
| 2026-04-24 20:29 | 35.45108 | 30.85580 | 32745 ft | 489 kts | 353° |
| 2026-04-24 20:29 | 35.49657 | 30.85419 | 33104 ft | 489 kts | 353° |
| 2026-04-24 20:29 | 35.53073 | 30.85297 | 33389 ft | 489 kts | 353° |
| 2026-04-24 20:29 | 35.56471 | 30.85178 | 33699 ft | 488 kts | 353° |
| 2026-04-24 20:30 | 35.59860 | 30.85063 | 34010 ft | 487 kts | 352° |
| 2026-04-24 20:30 | 35.63242 | 30.84939 | 34266 ft | 485 kts | 352° |
| 2026-04-24 20:30 | 35.66610 | 30.84758 | 34499 ft | 484 kts | 351° |
| 2026-04-24 20:30 | 35.69935 | 30.84545 | 34716 ft | 484 kts | 351° |
| 2026-04-24 20:31 | 35.73298 | 30.84321 | 34946 ft | 483 kts | 351° |
| 2026-04-24 20:31 | 35.76651 | 30.84099 | 35194 ft | 482 kts | 351° |
| 2026-04-24 20:31 | 35.80004 | 30.83884 | 35419 ft | 482 kts | 351° |
| 2026-04-24 20:31 | 35.83344 | 30.83676 | 35685 ft | 480 kts | 351° |
| 2026-04-24 20:32 | 35.86689 | 30.83471 | 35947 ft | 479 kts | 351° |
| 2026-04-24 20:32 | 35.90013 | 30.83267 | 36145 ft | 479 kts | 352° |
| 2026-04-24 20:32 | 35.93342 | 30.83063 | 36316 ft | 479 kts | 352° |
| 2026-04-24 20:32 | 35.96670 | 30.82858 | 36511 ft | 479 kts | 352° |
| 2026-04-24 20:33 | 35.99995 | 30.82654 | 36734 ft | 478 kts | 352° |
| 2026-04-24 20:33 | 36.03306 | 30.82450 | 36985 ft | 476 kts | 352° |
| 2026-04-24 20:33 | 36.06619 | 30.82273 | 37211 ft | 475 kts | 353° |
| 2026-04-24 20:33 | 36.09925 | 30.82158 | 37431 ft | 475 kts | 353° |
| 2026-04-24 20:34 | 36.13189 | 30.82070 | 37584 ft | 475 kts | 353° |
| 2026-04-24 20:34 | 36.16494 | 30.81984 | 37742 ft | 475 kts | 353° |
| 2026-04-24 20:34 | 36.19804 | 30.81893 | 37914 ft | 475 kts | 353° |
| 2026-04-24 20:34 | 36.23111 | 30.81794 | 37962 ft | 476 kts | 353° |
| 2026-04-24 20:35 | 36.29744 | 30.81582 | 37965 ft | 477 kts | 353° |
| 2026-04-24 20:35 | 36.36342 | 30.81371 | 37957 ft | 471 kts | 353° |
| 2026-04-24 20:36 | 36.42876 | 30.81159 | 37961 ft | 468 kts | 353° |
| 2026-04-24 20:36 | 36.49366 | 30.80932 | 37965 ft | 466 kts | 353° |
| 2026-04-24 20:37 | 36.55829 | 30.80698 | 37971 ft | 465 kts | 353° |
| 2026-04-24 20:37 | 36.62305 | 30.80465 | 37966 ft | 466 kts | 353° |
| 2026-04-24 20:38 | 36.68755 | 30.80234 | 37981 ft | 468 kts | 353° |
| 2026-04-24 20:38 | 36.75279 | 30.80001 | 37978 ft | 470 kts | 353° |
| 2026-04-24 20:39 | 36.81847 | 30.79767 | 37972 ft | 473 kts | 353° |
| 2026-04-24 20:39 | 36.88433 | 30.79531 | 37998 ft | 475 kts | 353° |
| 2026-04-24 20:40 | 36.95067 | 30.79616 | 37971 ft | 481 kts | 1° |
| 2026-04-24 20:40 | 37.01738 | 30.80579 | 37963 ft | 484 kts | 3° |
| 2026-04-24 20:41 | 37.08411 | 30.81650 | 37988 ft | 483 kts | 3° |
| 2026-04-24 20:41 | 37.15091 | 30.82656 | 37977 ft | 482 kts | 2° |
| 2026-04-24 20:42 | 37.21751 | 30.83611 | 37987 ft | 481 kts | 2° |
| 2026-04-24 20:42 | 37.28364 | 30.84544 | 37985 ft | 480 kts | 2° |
| 2026-04-24 20:43 | 37.34978 | 30.85489 | 38021 ft | 476 kts | 2° |
| 2026-04-24 20:43 | 37.41566 | 30.86434 | 38012 ft | 475 kts | 2° |
| 2026-04-24 20:44 | 37.48078 | 30.87363 | 38026 ft | 473 kts | 2° |
| 2026-04-24 20:44 | 37.54614 | 30.88281 | 38030 ft | 471 kts | 2° |
| 2026-04-24 20:45 | 37.61132 | 30.89225 | 38006 ft | 472 kts | 2° |
| 2026-04-24 20:45 | 37.67664 | 30.90171 | 38017 ft | 472 kts | 2° |
| 2026-04-24 20:46 | 37.74197 | 30.91114 | 38018 ft | 473 kts | 2° |
| 2026-04-24 20:46 | 37.80746 | 30.92058 | 37995 ft | 473 kts | 2° |
| 2026-04-24 20:47 | 37.87235 | 30.92991 | 38000 ft | 473 kts | 2° |
| 2026-04-24 20:47 | 37.93775 | 30.93943 | 38020 ft | 474 kts | 2° |
| 2026-04-24 20:48 | 38.00342 | 30.94898 | 38008 ft | 475 kts | 2° |
| 2026-04-24 20:48 | 38.06924 | 30.95856 | 38017 ft | 477 kts | 2° |
| 2026-04-24 20:49 | 38.13515 | 30.96816 | 38022 ft | 477 kts | 2° |
| 2026-04-24 20:49 | 38.20121 | 30.97781 | 38019 ft | 478 kts | 2° |
| 2026-04-24 20:50 | 38.26730 | 30.98747 | 38020 ft | 478 kts | 2° |
| 2026-04-24 20:50 | 38.33246 | 30.99706 | 38007 ft | 464 kts | 2° |
| 2026-04-24 20:51 | 38.39620 | 31.00640 | 38031 ft | 459 kts | 2° |
| 2026-04-24 20:51 | 38.45949 | 31.01412 | 38018 ft | 453 kts | 354° |
| 2026-04-24 20:52 | 38.52076 | 31.00183 | 38042 ft | 444 kts | 336° |
| 2026-04-24 20:52 | 38.57844 | 30.97408 | 38052 ft | 448 kts | 334° |
| 2026-04-24 20:53 | 38.63685 | 30.94515 | 38064 ft | 451 kts | 335° |
| 2026-04-24 20:53 | 38.69576 | 30.91642 | 38068 ft | 452 kts | 335° |
| 2026-04-24 20:54 | 38.75404 | 30.88830 | 38040 ft | 443 kts | 335° |
| 2026-04-24 20:54 | 38.81152 | 30.86057 | 38062 ft | 440 kts | 335° |
| 2026-04-24 20:55 | 38.86880 | 30.83286 | 38062 ft | 440 kts | 335° |
| 2026-04-24 20:55 | 38.92570 | 30.80527 | 38075 ft | 440 kts | 335° |
| 2026-04-24 20:56 | 38.98300 | 30.77745 | 38077 ft | 440 kts | 335° |
| 2026-04-24 20:56 | 39.04030 | 30.74958 | 38079 ft | 441 kts | 335° |
| 2026-04-24 20:57 | 39.09782 | 30.72155 | 38089 ft | 443 kts | 335° |
| 2026-04-24 20:57 | 39.15558 | 30.69336 | 38100 ft | 444 kts | 336° |
| 2026-04-24 20:58 | 39.21368 | 30.66495 | 38088 ft | 446 kts | 336° |
| 2026-04-24 20:58 | 39.27179 | 30.63650 | 38089 ft | 448 kts | 336° |
| 2026-04-24 20:59 | 39.32974 | 30.60807 | 38087 ft | 448 kts | 336° |
| 2026-04-24 20:59 | 39.38811 | 30.57938 | 38095 ft | 448 kts | 336° |
| 2026-04-24 21:00 | 39.44655 | 30.55060 | 38090 ft | 448 kts | 336° |
| 2026-04-24 21:00 | 39.50433 | 30.52210 | 38094 ft | 447 kts | 336° |
| 2026-04-24 21:01 | 39.56232 | 30.49294 | 38092 ft | 446 kts | 334° |
| 2026-04-24 21:01 | 39.61900 | 30.46042 | 38101 ft | 444 kts | 333° |
| 2026-04-24 21:02 | 39.67523 | 30.42697 | 38077 ft | 444 kts | 333° |
| 2026-04-24 21:02 | 39.73142 | 30.39378 | 38072 ft | 443 kts | 334° |
| 2026-04-24 21:03 | 39.78761 | 30.36084 | 38076 ft | 443 kts | 334° |
| 2026-04-24 21:03 | 39.84373 | 30.32798 | 38091 ft | 442 kts | 334° |
| 2026-04-24 21:04 | 39.89990 | 30.29505 | 38083 ft | 442 kts | 334° |
| 2026-04-24 21:04 | 39.95596 | 30.26211 | 38075 ft | 442 kts | 334° |
| 2026-04-24 21:05 | 40.01204 | 30.22911 | 38085 ft | 442 kts | 334° |
| 2026-04-24 21:05 | 40.06804 | 30.19609 | 38083 ft | 441 kts | 334° |
| 2026-04-24 21:06 | 40.12400 | 30.16303 | 38086 ft | 441 kts | 334° |
| 2026-04-24 21:06 | 40.17992 | 30.12993 | 38084 ft | 441 kts | 334° |
| 2026-04-24 21:07 | 40.23554 | 30.09694 | 38063 ft | 442 kts | 334° |
| 2026-04-24 21:07 | 40.29151 | 30.06371 | 38067 ft | 441 kts | 334° |
| 2026-04-24 21:08 | 40.34746 | 30.03042 | 38076 ft | 441 kts | 334° |
| 2026-04-24 21:08 | 40.40346 | 29.99703 | 38056 ft | 442 kts | 334° |
| 2026-04-24 21:09 | 40.45935 | 29.96366 | 38062 ft | 441 kts | 334° |
| 2026-04-24 21:09 | 40.51526 | 29.93020 | 38049 ft | 441 kts | 334° |
| 2026-04-24 21:10 | 40.56168 | 29.90238 | 38054 ft | 440 kts | 335° |
| 2026-04-24 21:10 | 40.61741 | 29.86893 | 38051 ft | 439 kts | 335° |
| 2026-04-24 21:11 | 40.67297 | 29.83551 | 38035 ft | 438 kts | 335° |
| 2026-04-24 21:11 | 40.72829 | 29.80217 | 38047 ft | 437 kts | 335° |
| 2026-04-24 21:12 | 40.73809 | 29.79626 | 37355 ft | 436 kts | 335° |
| 2026-04-24 21:12 | 40.76651 | 29.77910 | 37545 ft | 431 kts | 335° |
| 2026-04-24 21:12 | 40.79374 | 29.76265 | 37747 ft | 430 kts | 335° |
| 2026-04-24 21:12 | 40.82094 | 29.74621 | 37854 ft | 430 kts | 335° |
| 2026-04-24 21:13 | 40.87560 | 29.71311 | 37981 ft | 434 kts | 335° |
| 2026-04-24 21:13 | 40.93077 | 29.67964 | 38008 ft | 440 kts | 335° |
| 2026-04-24 21:14 | 40.98671 | 29.64564 | 38006 ft | 443 kts | 335° |
| 2026-04-24 21:14 | 41.04292 | 29.61141 | 38006 ft | 445 kts | 335° |
| 2026-04-24 21:15 | 41.09890 | 29.57725 | 37993 ft | 444 kts | 335° |
| 2026-04-24 21:15 | 41.15439 | 29.54333 | 37988 ft | 435 kts | 335° |
| 2026-04-24 21:16 | 41.20975 | 29.51072 | 37997 ft | 435 kts | 341° |
| 2026-04-24 21:16 | 41.26780 | 29.48800 | 38000 ft | 435 kts | 345° |
| 2026-04-24 21:17 | 41.32633 | 29.46705 | 38004 ft | 436 kts | 345° |
| 2026-04-24 21:17 | 41.38451 | 29.44563 | 38002 ft | 436 kts | 344° |
| 2026-04-24 21:18 | 41.44303 | 29.42353 | 38003 ft | 437 kts | 344° |
| 2026-04-24 21:18 | 41.50157 | 29.40121 | 38002 ft | 438 kts | 344° |
| 2026-04-24 21:19 | 41.56028 | 29.37876 | 38002 ft | 439 kts | 344° |
| 2026-04-24 21:19 | 41.61896 | 29.35631 | 38001 ft | 439 kts | 344° |
| 2026-04-24 21:20 | 41.70716 | 29.32249 | 38001 ft | 440 kts | 344° |
| 2026-04-24 21:21 | 41.76566 | 29.30000 | 38001 ft | 440 kts | 344° |
| 2026-04-24 21:21 | 41.82444 | 29.27737 | 38001 ft | 440 kts | 344° |
| 2026-04-24 21:22 | 41.88329 | 29.25466 | 38001 ft | 439 kts | 344° |
| 2026-04-24 21:22 | 41.94200 | 29.23196 | 38000 ft | 439 kts | 344° |
| 2026-04-24 21:23 | 42.00070 | 29.20922 | 38000 ft | 438 kts | 344° |
| 2026-04-24 21:23 | 42.05898 | 29.18661 | 38001 ft | 438 kts | 344° |
| 2026-04-24 21:24 | 42.11750 | 29.16386 | 38001 ft | 438 kts | 344° |
| 2026-04-24 21:24 | 42.17287 | 29.13100 | 38011 ft | 436 kts | 325° |
| 2026-04-24 21:24 | 42.19642 | 29.10538 | 37997 ft | 436 kts | 314° |
| 2026-04-24 21:25 | 42.21680 | 29.07511 | 38017 ft | 435 kts | 311° |
| 2026-04-24 21:25 | 42.25622 | 29.01296 | 38003 ft | 436 kts | 310° |
| 2026-04-24 21:26 | 42.29565 | 28.95079 | 38000 ft | 436 kts | 310° |
| 2026-04-24 21:26 | 42.33544 | 28.88867 | 38002 ft | 437 kts | 311° |
| 2026-04-24 21:27 | 42.37527 | 28.82670 | 38001 ft | 437 kts | 311° |
| 2026-04-24 21:27 | 42.41518 | 28.76453 | 38002 ft | 438 kts | 311° |
| 2026-04-24 21:28 | 42.45486 | 28.70258 | 38002 ft | 438 kts | 311° |
| 2026-04-24 21:28 | 42.49477 | 28.64013 | 38001 ft | 438 kts | 311° |
| 2026-04-24 21:29 | 42.53469 | 28.57752 | 38001 ft | 439 kts | 311° |
| 2026-04-24 21:29 | 42.57457 | 28.51485 | 38001 ft | 439 kts | 310° |
| 2026-04-24 21:30 | 42.61448 | 28.45198 | 38001 ft | 439 kts | 310° |
| 2026-04-24 21:30 | 42.65432 | 28.38909 | 38001 ft | 439 kts | 310° |
| 2026-04-24 21:31 | 42.69408 | 28.32619 | 38001 ft | 439 kts | 310° |
| 2026-04-24 21:31 | 42.73384 | 28.26316 | 38001 ft | 439 kts | 310° |
| 2026-04-24 21:32 | 42.77350 | 28.20014 | 38001 ft | 438 kts | 310° |
| 2026-04-24 21:32 | 42.81291 | 28.13739 | 38001 ft | 438 kts | 310° |
| 2026-04-24 21:33 | 42.85193 | 28.07369 | 38001 ft | 438 kts | 309° |
| 2026-04-24 21:33 | 42.89084 | 28.00987 | 38001 ft | 437 kts | 310° |
| 2026-04-24 21:34 | 42.93028 | 27.94665 | 38001 ft | 437 kts | 310° |
| 2026-04-24 21:34 | 42.96986 | 27.88360 | 38001 ft | 437 kts | 310° |
| 2026-04-24 21:35 | 43.00934 | 27.82040 | 38003 ft | 437 kts | 310° |
| 2026-04-24 21:35 | 43.04871 | 27.75711 | 38000 ft | 437 kts | 310° |
| 2026-04-24 21:36 | 43.08804 | 27.69370 | 38001 ft | 437 kts | 310° |
| 2026-04-24 21:36 | 43.12736 | 27.63019 | 38003 ft | 437 kts | 310° |
| 2026-04-24 21:37 | 43.16671 | 27.56648 | 38005 ft | 438 kts | 310° |
| 2026-04-24 21:37 | 43.20606 | 27.50263 | 37998 ft | 438 kts | 310° |
| 2026-04-24 21:38 | 43.24515 | 27.43909 | 38008 ft | 439 kts | 310° |
| 2026-04-24 21:38 | 43.28448 | 27.37501 | 38000 ft | 439 kts | 310° |
| 2026-04-24 21:39 | 43.32399 | 27.31094 | 38001 ft | 440 kts | 310° |
| 2026-04-24 21:39 | 43.36354 | 27.24683 | 38002 ft | 440 kts | 310° |
| 2026-04-24 21:40 | 43.40308 | 27.18251 | 38002 ft | 440 kts | 310° |
| 2026-04-24 21:40 | 43.44249 | 27.11795 | 37999 ft | 440 kts | 310° |
| 2026-04-24 21:41 | 43.48158 | 27.05368 | 38002 ft | 441 kts | 310° |
| 2026-04-24 21:41 | 43.52101 | 26.98875 | 38000 ft | 441 kts | 310° |
| 2026-04-24 21:42 | 43.56037 | 26.92383 | 38003 ft | 441 kts | 310° |
| 2026-04-24 21:42 | 43.59968 | 26.85883 | 38001 ft | 441 kts | 310° |
| 2026-04-24 21:43 | 43.63896 | 26.79373 | 38001 ft | 441 kts | 310° |
| 2026-04-24 21:43 | 43.67817 | 26.72858 | 38000 ft | 441 kts | 309° |
| 2026-04-24 21:44 | 43.71711 | 26.66374 | 38001 ft | 441 kts | 309° |
| 2026-04-24 21:44 | 43.75613 | 26.59848 | 37999 ft | 440 kts | 308° |
| 2026-04-24 21:45 | 43.79485 | 26.53287 | 38003 ft | 439 kts | 309° |
| 2026-04-24 21:45 | 43.83389 | 26.46764 | 38001 ft | 439 kts | 309° |
| 2026-04-24 21:46 | 43.87276 | 26.40257 | 38001 ft | 438 kts | 309° |
| 2026-04-24 21:46 | 43.91159 | 26.33729 | 38001 ft | 438 kts | 309° |
| 2026-04-24 21:47 | 43.95005 | 26.27252 | 38000 ft | 437 kts | 309° |
| 2026-04-24 21:47 | 43.98864 | 26.20723 | 38002 ft | 437 kts | 308° |
| 2026-04-24 21:48 | 44.02529 | 26.13995 | 38000 ft | 437 kts | 305° |
| 2026-04-24 21:48 | 44.06094 | 26.07148 | 38000 ft | 436 kts | 305° |
| 2026-04-24 21:49 | 44.09672 | 26.00318 | 38002 ft | 436 kts | 306° |
| 2026-04-24 21:49 | 44.13265 | 25.93512 | 38002 ft | 437 kts | 306° |
| 2026-04-24 21:50 | 44.16871 | 25.86695 | 38003 ft | 437 kts | 306° |
| 2026-04-24 21:50 | 44.20455 | 25.79911 | 38001 ft | 438 kts | 306° |
| 2026-04-24 21:51 | 44.24062 | 25.73065 | 38002 ft | 438 kts | 306° |
| 2026-04-24 21:51 | 44.27670 | 25.66200 | 38001 ft | 438 kts | 306° |
| 2026-04-24 21:52 | 44.31277 | 25.59320 | 38001 ft | 439 kts | 306° |
| 2026-04-24 21:52 | 44.34880 | 25.52431 | 38001 ft | 439 kts | 305° |
| 2026-04-24 21:53 | 44.38480 | 25.45530 | 38001 ft | 439 kts | 305° |
| 2026-04-24 21:53 | 44.42055 | 25.38663 | 38002 ft | 440 kts | 305° |
| 2026-04-24 21:54 | 44.45653 | 25.31736 | 38002 ft | 440 kts | 305° |
| 2026-04-24 21:54 | 44.49242 | 25.24807 | 38000 ft | 440 kts | 305° |
| 2026-04-24 21:55 | 44.52831 | 25.17862 | 38001 ft | 440 kts | 305° |
| 2026-04-24 21:55 | 44.56414 | 25.10912 | 38001 ft | 440 kts | 305° |
| 2026-04-24 21:56 | 44.59994 | 25.03953 | 38001 ft | 440 kts | 305° |
| 2026-04-24 21:56 | 44.63565 | 24.96993 | 38001 ft | 439 kts | 305° |
| 2026-04-24 21:57 | 44.67131 | 24.90025 | 38001 ft | 439 kts | 305° |
| 2026-04-24 21:57 | 44.70698 | 24.83040 | 38001 ft | 439 kts | 305° |
| 2026-04-24 21:58 | 44.74238 | 24.76090 | 38001 ft | 439 kts | 305° |
| 2026-04-24 21:58 | 44.77798 | 24.69086 | 38001 ft | 439 kts | 305° |
| 2026-04-24 21:59 | 44.81347 | 24.62083 | 38001 ft | 439 kts | 305° |
| 2026-04-24 21:59 | 44.84294 | 24.56257 | 38001 ft | 440 kts | 304° |
| 2026-04-24 22:00 | 44.88418 | 24.48082 | 38003 ft | 440 kts | 304° |
| 2026-04-24 22:00 | 44.91389 | 24.42180 | 38000 ft | 440 kts | 304° |
| 2026-04-24 22:01 | 44.94909 | 24.35172 | 38002 ft | 440 kts | 304° |
| 2026-04-24 22:01 | 44.98447 | 24.28109 | 38002 ft | 441 kts | 304° |
| 2026-04-24 22:02 | 45.01986 | 24.21027 | 37999 ft | 441 kts | 304° |
| 2026-04-24 22:02 | 45.05519 | 24.13939 | 38002 ft | 441 kts | 304° |
| 2026-04-24 22:03 | 45.09045 | 24.06849 | 38000 ft | 441 kts | 304° |
| 2026-04-24 22:03 | 45.12570 | 23.99741 | 38000 ft | 441 kts | 304° |
| 2026-04-24 22:04 | 45.16067 | 23.92675 | 38000 ft | 441 kts | 304° |
| 2026-04-24 22:04 | 45.19586 | 23.85544 | 38002 ft | 441 kts | 304° |
| 2026-04-24 22:05 | 45.23100 | 23.78407 | 38000 ft | 442 kts | 304° |
| 2026-04-24 22:05 | 45.26622 | 23.71235 | 37999 ft | 443 kts | 304° |
| 2026-04-24 22:06 | 45.30145 | 23.64042 | 38009 ft | 444 kts | 304° |
| 2026-04-24 22:06 | 45.33677 | 23.56815 | 37997 ft | 446 kts | 304° |
| 2026-04-24 22:07 | 45.37224 | 23.49537 | 38007 ft | 449 kts | 304° |
| 2026-04-24 22:07 | 45.40785 | 23.42213 | 38012 ft | 451 kts | 304° |
| 2026-04-24 22:08 | 45.44341 | 23.34880 | 37992 ft | 447 kts | 304° |
| 2026-04-24 22:08 | 45.47841 | 23.27643 | 37990 ft | 441 kts | 304° |
| 2026-04-24 22:09 | 45.51314 | 23.20443 | 38007 ft | 440 kts | 304° |
| 2026-04-24 22:09 | 45.54782 | 23.13235 | 38004 ft | 440 kts | 304° |
| 2026-04-24 22:10 | 45.58241 | 23.06029 | 37998 ft | 440 kts | 303° |
| 2026-04-24 22:10 | 45.61676 | 22.98854 | 38008 ft | 440 kts | 303° |
| 2026-04-24 22:11 | 45.65130 | 22.91622 | 37997 ft | 441 kts | 303° |
| 2026-04-24 22:11 | 45.68581 | 22.84376 | 38002 ft | 440 kts | 303° |
| 2026-04-24 22:12 | 45.72027 | 22.77122 | 37995 ft | 441 kts | 303° |
| 2026-04-24 22:12 | 45.75471 | 22.69854 | 38003 ft | 441 kts | 303° |
| 2026-04-24 22:13 | 45.78917 | 22.62564 | 37999 ft | 442 kts | 303° |
| 2026-04-24 22:13 | 45.82356 | 22.55269 | 38004 ft | 442 kts | 303° |
| 2026-04-24 22:14 | 45.85801 | 22.47943 | 38009 ft | 443 kts | 303° |
| 2026-04-24 22:14 | 45.89218 | 22.40658 | 38003 ft | 443 kts | 303° |
| 2026-04-24 22:15 | 45.92651 | 22.33319 | 37997 ft | 443 kts | 303° |
| 2026-04-24 22:15 | 45.96080 | 22.25971 | 38003 ft | 442 kts | 303° |
| 2026-04-24 22:16 | 45.99495 | 22.18633 | 38000 ft | 441 kts | 303° |
| 2026-04-24 22:16 | 46.02897 | 22.11302 | 38000 ft | 440 kts | 303° |
| 2026-04-24 22:17 | 46.06289 | 22.03975 | 37998 ft | 439 kts | 303° |
| 2026-04-24 22:17 | 46.09667 | 21.96659 | 38001 ft | 438 kts | 303° |
| 2026-04-24 22:18 | 46.13035 | 21.89346 | 37997 ft | 437 kts | 303° |
| 2026-04-24 22:18 | 46.16372 | 21.82081 | 37995 ft | 437 kts | 303° |
| 2026-04-24 22:19 | 46.19730 | 21.74752 | 38007 ft | 437 kts | 303° |
| 2026-04-24 22:19 | 46.23084 | 21.67411 | 38002 ft | 438 kts | 302° |
| 2026-04-24 22:20 | 46.26439 | 21.60049 | 38008 ft | 439 kts | 302° |
| 2026-04-24 22:20 | 46.29800 | 21.52656 | 38000 ft | 439 kts | 302° |
| 2026-04-24 22:21 | 46.33157 | 21.45251 | 38002 ft | 440 kts | 302° |
| 2026-04-24 22:21 | 46.36490 | 21.37880 | 38001 ft | 440 kts | 302° |
| 2026-04-24 22:22 | 46.39840 | 21.30451 | 38001 ft | 440 kts | 302° |
| 2026-04-24 22:22 | 46.43183 | 21.23018 | 38001 ft | 440 kts | 302° |
| 2026-04-24 22:23 | 46.46521 | 21.15576 | 38001 ft | 440 kts | 302° |
| 2026-04-24 22:23 | 46.49851 | 21.08132 | 38001 ft | 439 kts | 302° |
| 2026-04-24 22:24 | 46.53178 | 21.00676 | 38001 ft | 439 kts | 302° |
| 2026-04-24 22:24 | 46.56471 | 20.93274 | 38001 ft | 439 kts | 302° |
| 2026-04-24 22:25 | 46.59780 | 20.85820 | 38001 ft | 438 kts | 302° |
| 2026-04-24 22:25 | 46.63080 | 20.78363 | 38001 ft | 438 kts | 302° |
| 2026-04-24 22:26 | 46.66370 | 20.70910 | 38001 ft | 438 kts | 302° |
| 2026-04-24 22:26 | 46.69655 | 20.63447 | 38001 ft | 438 kts | 302° |
| 2026-04-24 22:27 | 46.72939 | 20.55967 | 38001 ft | 437 kts | 302° |
| 2026-04-24 22:27 | 46.76215 | 20.48486 | 38002 ft | 437 kts | 302° |
| 2026-04-24 22:28 | 46.79489 | 20.40989 | 38001 ft | 437 kts | 302° |
| 2026-04-24 22:28 | 46.82752 | 20.33496 | 38001 ft | 438 kts | 302° |
| 2026-04-24 22:29 | 46.87629 | 20.22260 | 38002 ft | 438 kts | 301° |
| 2026-04-24 22:29 | 46.90888 | 20.14726 | 38001 ft | 438 kts | 301° |
| 2026-04-24 22:30 | 46.94132 | 20.07205 | 38001 ft | 438 kts | 301° |
| 2026-04-24 22:30 | 46.97360 | 19.99702 | 38001 ft | 438 kts | 301° |
| 2026-04-24 22:31 | 47.00606 | 19.92136 | 38002 ft | 439 kts | 301° |
| 2026-04-24 22:31 | 47.03851 | 19.84552 | 38001 ft | 439 kts | 301° |
| 2026-04-24 22:32 | 47.07092 | 19.76958 | 38001 ft | 439 kts | 301° |
| 2026-04-24 22:32 | 47.10329 | 19.69353 | 38001 ft | 439 kts | 301° |
| 2026-04-24 22:33 | 47.13555 | 19.61751 | 37536 ft | 446 kts | 301° |
| 2026-04-24 22:33 | 47.15190 | 19.57890 | 37052 ft | 444 kts | 301° |
| 2026-04-24 22:33 | 47.16820 | 19.54038 | 36498 ft | 443 kts | 301° |
| 2026-04-24 22:34 | 47.18443 | 19.50198 | 35943 ft | 442 kts | 301° |
| 2026-04-24 22:34 | 47.20068 | 19.46346 | 35318 ft | 443 kts | 301° |
| 2026-04-24 22:34 | 47.21694 | 19.42489 | 34690 ft | 444 kts | 301° |
| 2026-04-24 22:34 | 47.23316 | 19.38633 | 34054 ft | 444 kts | 301° |
| 2026-04-24 22:35 | 47.24945 | 19.34757 | 33393 ft | 445 kts | 301° |
| 2026-04-24 22:35 | 47.26571 | 19.30885 | 32857 ft | 443 kts | 301° |
| 2026-04-24 22:35 | 47.28182 | 19.27043 | 32437 ft | 438 kts | 301° |
| 2026-04-24 22:35 | 47.29773 | 19.23245 | 32015 ft | 434 kts | 301° |
| 2026-04-24 22:36 | 47.31350 | 19.19475 | 31597 ft | 429 kts | 301° |
| 2026-04-24 22:36 | 47.32908 | 19.15739 | 31178 ft | 425 kts | 301° |
| 2026-04-24 22:36 | 47.34422 | 19.12020 | 30762 ft | 421 kts | 298° |
| 2026-04-24 22:36 | 47.35725 | 19.08177 | 30356 ft | 417 kts | 294° |
| 2026-04-24 22:37 | 47.36922 | 19.04305 | 29946 ft | 413 kts | 293° |
| 2026-04-24 22:37 | 47.38085 | 19.00443 | 29531 ft | 409 kts | 293° |
| 2026-04-24 22:37 | 47.39240 | 18.96621 | 29120 ft | 405 kts | 294° |
| 2026-04-24 22:37 | 47.40393 | 18.92851 | 28710 ft | 402 kts | 294° |
| 2026-04-24 22:38 | 47.41534 | 18.89156 | 28304 ft | 398 kts | 294° |
| 2026-04-24 22:38 | 47.42686 | 18.85446 | 27893 ft | 395 kts | 294° |
| 2026-04-24 22:38 | 47.43832 | 18.81767 | 27484 ft | 392 kts | 294° |
| 2026-04-24 22:38 | 47.44967 | 18.78127 | 27079 ft | 389 kts | 294° |
| 2026-04-24 22:39 | 47.46093 | 18.74510 | 26676 ft | 386 kts | 294° |
| 2026-04-24 22:39 | 47.47206 | 18.70929 | 26279 ft | 383 kts | 294° |
| 2026-04-24 22:39 | 47.48314 | 18.67360 | 25880 ft | 380 kts | 294° |
| 2026-04-24 22:39 | 47.49411 | 18.63824 | 25489 ft | 377 kts | 294° |
| 2026-04-24 22:40 | 47.50500 | 18.60312 | 25092 ft | 374 kts | 294° |
| 2026-04-24 22:40 | 47.51582 | 18.56817 | 24702 ft | 372 kts | 294° |
| 2026-04-24 22:40 | 47.52651 | 18.53349 | 24300 ft | 369 kts | 294° |
| 2026-04-24 22:40 | 47.53710 | 18.49901 | 23923 ft | 367 kts | 294° |
| 2026-04-24 22:41 | 47.54651 | 18.46416 | 23547 ft | 364 kts | 288° |
| 2026-04-24 22:41 | 47.55431 | 18.42867 | 23165 ft | 361 kts | 287° |
| 2026-04-24 22:41 | 47.56155 | 18.39319 | 22786 ft | 359 kts | 286° |
| 2026-04-24 22:41 | 47.56629 | 18.36967 | 22323 ft | 363 kts | 286° |
| 2026-04-24 22:42 | 47.57607 | 18.32163 | 21192 ft | 369 kts | 286° |
| 2026-04-24 22:42 | 47.58358 | 18.28533 | 20563 ft | 364 kts | 287° |
| 2026-04-24 22:42 | 47.59094 | 18.25009 | 20225 ft | 353 kts | 287° |
| 2026-04-24 22:42 | 47.59824 | 18.21528 | 19883 ft | 356 kts | 287° |
| 2026-04-24 22:43 | 47.60567 | 18.17990 | 19542 ft | 362 kts | 287° |
| 2026-04-24 22:43 | 47.61319 | 18.14423 | 19194 ft | 362 kts | 287° |
| 2026-04-24 22:43 | 47.62065 | 18.10879 | 18838 ft | 359 kts | 287° |
| 2026-04-24 22:43 | 47.62805 | 18.07360 | 18483 ft | 356 kts | 287° |
| 2026-04-24 22:44 | 47.63537 | 18.03871 | 18133 ft | 354 kts | 287° |
| 2026-04-24 22:44 | 47.64267 | 18.00386 | 17788 ft | 352 kts | 287° |
| 2026-04-24 22:44 | 47.64991 | 17.96922 | 17432 ft | 351 kts | 287° |
| 2026-04-24 22:44 | 47.65717 | 17.93449 | 17099 ft | 356 kts | 287° |
| 2026-04-24 22:45 | 47.66448 | 17.89944 | 16746 ft | 354 kts | 287° |
| 2026-04-24 22:45 | 47.67164 | 17.86505 | 16403 ft | 352 kts | 287° |
| 2026-04-24 22:45 | 47.67882 | 17.83047 | 16050 ft | 348 kts | 287° |
| 2026-04-24 22:45 | 47.68591 | 17.79632 | 15694 ft | 344 kts | 287° |
| 2026-04-24 22:46 | 47.69290 | 17.76253 | 15343 ft | 340 kts | 287° |
| 2026-04-24 22:46 | 47.69982 | 17.72910 | 14994 ft | 337 kts | 287° |
| 2026-04-24 22:46 | 47.70666 | 17.69594 | 14641 ft | 334 kts | 287° |
| 2026-04-24 22:46 | 47.71116 | 17.67417 | 14405 ft | 333 kts | 287° |
| 2026-04-24 22:47 | 47.71796 | 17.64119 | 14062 ft | 337 kts | 287° |
| 2026-04-24 22:47 | 47.72503 | 17.60693 | 13750 ft | 361 kts | 287° |
| 2026-04-24 22:47 | 47.73256 | 17.57037 | 13405 ft | 371 kts | 287° |
| 2026-04-24 22:47 | 47.74002 | 17.53399 | 13029 ft | 365 kts | 287° |
| 2026-04-24 22:48 | 47.74628 | 17.49789 | 12664 ft | 357 kts | 276° |
| 2026-04-24 22:48 | 47.74408 | 17.44990 | 12215 ft | 348 kts | 262° |
| 2026-04-24 22:48 | 47.74223 | 17.42592 | 11962 ft | 344 kts | 266° |
| 2026-04-24 22:48 | 47.74529 | 17.39104 | 11593 ft | 342 kts | 289° |
| 2026-04-24 22:49 | 47.75543 | 17.36006 | 11263 ft | 336 kts | 303° |
| 2026-04-24 22:49 | 47.76887 | 17.33144 | 10910 ft | 331 kts | 306° |
| 2026-04-24 22:49 | 47.78219 | 17.30439 | 10561 ft | 327 kts | 306° |
| 2026-04-24 22:49 | 47.79562 | 17.27735 | 10215 ft | 323 kts | 306° |
| 2026-04-24 22:50 | 47.80885 | 17.25063 | 9860 ft | 319 kts | 306° |
| 2026-04-24 22:50 | 47.82192 | 17.22405 | 9505 ft | 314 kts | 306° |
| 2026-04-24 22:50 | 47.83452 | 17.19829 | 9115 ft | 304 kts | 306° |
| 2026-04-24 22:50 | 47.84678 | 17.17312 | 8680 ft | 296 kts | 305° |
| 2026-04-24 22:51 | 47.85875 | 17.14845 | 8247 ft | 290 kts | 305° |
| 2026-04-24 22:51 | 47.87044 | 17.12433 | 7819 ft | 284 kts | 305° |
| 2026-04-24 22:51 | 47.88190 | 17.10066 | 7391 ft | 279 kts | 305° |
| 2026-04-24 22:51 | 47.89315 | 17.07738 | 6964 ft | 275 kts | 305° |
| 2026-04-24 22:52 | 47.90428 | 17.05435 | 6493 ft | 273 kts | 305° |
| 2026-04-24 22:52 | 47.91531 | 17.03148 | 6031 ft | 271 kts | 305° |
| 2026-04-24 22:52 | 47.92603 | 17.00925 | 5886 ft | 256 kts | 305° |
| 2026-04-24 22:52 | 47.93603 | 16.98849 | 5715 ft | 244 kts | 305° |
| 2026-04-24 22:53 | 47.94587 | 16.96805 | 5361 ft | 242 kts | 305° |
| 2026-04-24 22:53 | 47.95574 | 16.94752 | 5078 ft | 243 kts | 305° |
| 2026-04-24 22:53 | 47.96553 | 16.92716 | 4862 ft | 240 kts | 305° |
| 2026-04-24 22:53 | 47.97526 | 16.90692 | 4610 ft | 240 kts | 305° |
| 2026-04-24 22:54 | 47.98496 | 16.88672 | 4352 ft | 239 kts | 305° |
| 2026-04-24 22:54 | 47.99464 | 16.86658 | 4114 ft | 238 kts | 305° |
| 2026-04-24 22:54 | 48.00426 | 16.84655 | 3873 ft | 237 kts | 305° |
| 2026-04-24 22:54 | 48.01380 | 16.82667 | 3771 ft | 230 kts | 305° |
| 2026-04-24 22:55 | 48.02293 | 16.80760 | 3686 ft | 221 kts | 304° |
| 2026-04-24 22:55 | 48.03168 | 16.78927 | 3618 ft | 211 kts | 304° |
| 2026-04-24 22:55 | 48.04002 | 16.77177 | 3449 ft | 204 kts | 304° |
| 2026-04-24 22:55 | 48.04820 | 16.75455 | 3131 ft | 203 kts | 304° |
| 2026-04-24 22:56 | 48.05622 | 16.73733 | 2928 ft | 203 kts | 301° |
| 2026-04-24 22:56 | 48.06284 | 16.71872 | 2654 ft | 199 kts | 294° |
| 2026-04-24 22:56 | 48.06859 | 16.70061 | 2405 ft | 186 kts | 294° |
| 2026-04-24 22:56 | 48.07399 | 16.68377 | 2163 ft | 174 kts | 294° |
| 2026-04-24 22:57 | 48.07901 | 16.66826 | 1949 ft | 160 kts | 294° |
| 2026-04-24 22:57 | 48.08366 | 16.65389 | 1746 ft | 153 kts | 294° |
| 2026-04-24 22:57 | 48.08825 | 16.63964 | 1549 ft | 151 kts | 293° |
| 2026-04-24 22:57 | 48.09250 | 16.62533 | 1297 ft | 149 kts | 292° |
| 2026-04-24 22:58 | 48.09731 | 16.61178 | 1117 ft | 147 kts | 296° |
| 2026-04-24 22:58 | 48.10181 | 16.59757 | 942 ft | 154 kts | 296° |
| 2026-04-24 22:58 | 48.10659 | 16.58318 | 762 ft | 155 kts | 296° |
| 2026-04-24 22:58 | 48.11126 | 16.56886 | 620 ft | 148 kts | 296° |
| 2026-04-24 22:59 | 48.11530 | 16.55658 | 610 ft | 111 kts | 296° |
| 2026-04-24 22:59 | 48.11774 | 16.54898 | 616 ft | 47 kts | 296° |
| 2026-04-24 22:59 | 48.11988 | 16.54567 | 616 ft | 10 kts | 327° |
| 2026-04-24 23:00 | 48.12051 | 16.54549 | 612 ft | 10 kts | 18° |
| 2026-04-24 23:00 | 48.12110 | 16.54589 | 618 ft | 9 kts | 28° |
| 2026-04-24 23:00 | 48.12138 | 16.54636 | 611 ft | 3 kts | 78° |
| 2026-04-24 23:00 | 48.12137 | 16.54665 | 608 ft | 3 kts | 98° |
| 2026-04-24 23:01 | 48.12129 | 16.54693 | 615 ft | 3 kts | 116° |
| 2026-04-24 23:01 | 48.12115 | 16.54738 | 611 ft | 10 kts | 115° |
| 2026-04-24 23:01 | 48.12074 | 16.54863 | 614 ft | 12 kts | 116° |
| 2026-04-24 23:01 | 48.12033 | 16.54989 | 617 ft | 16 kts | 116° |
| 2026-04-24 23:02 | 48.11980 | 16.55155 | 611 ft | 19 kts | 116° |
| 2026-04-24 23:02 | 48.11957 | 16.55302 | 615 ft | 11 kts | 48° |
| 2026-04-24 23:02 | 48.12024 | 16.55358 | 615 ft | 11 kts | 25° |
| 2026-04-24 23:02 | 48.12091 | 16.55406 | 613 ft | 11 kts | 26° |
| 2026-04-24 23:03 | 48.12140 | 16.55439 | 617 ft | 4 kts | 9° |
| 2026-04-24 23:03 | 48.12160 | 16.55407 | 613 ft | 4 kts | 299° |
| 2026-04-24 23:03 | 48.12167 | 16.55388 | 608 ft | 0 kts | 297° |
| 2026-04-24 23:03 | 48.12169 | 16.55381 | 608 ft | 2 kts | 297° |
| 2026-04-24 23:04 | 48.12173 | 16.55369 | 611 ft | 0 kts | 296° |